createdAt,value
2022-12-08T00:01:22.432Z,51.74
2022-12-08T00:03:49.666Z,52.10
2022-12-08T00:06:59.777Z,52.09
2022-12-08T00:09:37.997Z,51.91
2022-12-08T00:12:15.143Z,52.40
2022-12-08T00:14:44.574Z,52.34
2022-12-08T00:17:14.269Z,53.02
2022-12-08T00:19:41.887Z,52.58
2022-12-08T00:22:10.103Z,52.62
2022-12-08T00:24:39.567Z,52.87
2022-12-08T00:27:10.899Z,52.80
2022-12-08T00:29:38.189Z,53.14
2022-12-08T00:32:05.653Z,52.78
2022-12-08T00:34:32.843Z,52.64
2022-12-08T00:36:59.568Z,53.50
2022-12-08T00:39:26.705Z,53.14
2022-12-08T00:42:11.889Z,52.58
2022-12-08T00:44:39.592Z,53.25
2022-12-08T00:47:06.151Z,53.16
2022-12-08T00:49:33.214Z,51.99
2022-12-08T00:52:00.086Z,53.32
2022-12-08T00:54:26.678Z,53.10
2022-12-08T00:56:53.368Z,53.72
2022-12-08T00:59:20.309Z,53.85
2022-12-08T01:01:47.555Z,53.09
2022-12-08T01:04:17.676Z,53.81
2022-12-08T01:06:44.938Z,52.77
2022-12-08T01:09:13.259Z,53.23
2022-12-08T01:11:39.772Z,52.85
2022-12-08T01:14:06.825Z,52.02
2022-12-08T01:16:36.272Z,53.14
2022-12-08T01:19:03.963Z,52.60
2022-12-08T01:21:31.350Z,52.74
2022-12-08T01:24:00.260Z,54.00
2022-12-08T01:26:27.232Z,54.09
2022-12-08T01:28:53.970Z,54.58
2022-12-08T01:31:21.719Z,53.36
2022-12-08T01:33:49.154Z,53.32
2022-12-08T01:36:22.555Z,52.52
2022-12-08T01:38:50.045Z,52.54
2022-12-08T01:41:19.010Z,54.01
2022-12-08T01:44:10.669Z,53.27
2022-12-08T01:46:43.229Z,53.51
2022-12-08T01:49:32.981Z,56.25
2022-12-08T01:52:13.748Z,53.90
2022-12-08T01:54:47.602Z,54.33
2022-12-08T01:57:18.599Z,54.26
2022-12-08T01:59:51.401Z,54.71
2022-12-08T02:02:18.065Z,54.27
2022-12-08T02:04:44.737Z,53.68
2022-12-08T02:07:14.510Z,53.12
2022-12-08T02:09:42.320Z,53.11
2022-12-08T02:12:10.056Z,52.50
2022-12-08T02:14:36.798Z,52.34
2022-12-08T02:17:11.988Z,52.07
2022-12-08T02:20:13.164Z,52.55
2022-12-08T02:22:51.912Z,52.77
2022-12-08T02:25:47.240Z,52.96
2022-12-08T02:28:42.272Z,52.90
2022-12-08T02:31:30.743Z,52.78
2022-12-08T02:34:18.073Z,53.40
2022-12-08T02:37:02.465Z,53.06
2022-12-08T02:39:38.686Z,52.97
2022-12-08T02:42:16.066Z,53.38
2022-12-08T02:45:06.956Z,52.27
2022-12-08T02:47:34.519Z,52.05
2022-12-08T02:50:01.189Z,52.60
2022-12-08T02:52:27.784Z,52.93
2022-12-08T02:54:58.959Z,53.06
2022-12-08T02:57:34.463Z,52.44
2022-12-08T03:00:10.408Z,52.70
2022-12-08T03:02:52.622Z,52.71
2022-12-08T03:05:31.733Z,52.38
2022-12-08T03:08:37.099Z,51.87
2022-12-08T03:11:20.227Z,50.80
2022-12-08T03:13:52.513Z,51.77
2022-12-08T03:16:24.410Z,51.37
2022-12-08T03:19:00.656Z,52.54
2022-12-08T03:21:27.298Z,52.41
2022-12-08T03:23:56.905Z,52.77
2022-12-08T03:26:37.041Z,52.33
2022-12-08T03:29:04.427Z,52.74
2022-12-08T03:31:35.627Z,51.87
2022-12-08T03:34:03.169Z,52.21
2022-12-08T03:36:30.094Z,51.72
2022-12-08T03:38:56.642Z,52.73
2022-12-08T03:41:23.565Z,52.13
2022-12-08T03:43:55.823Z,52.93
2022-12-08T03:48:50.548Z,52.65
2022-12-08T03:51:17.603Z,53.14
2022-12-08T03:53:44.149Z,53.71
2022-12-08T03:56:28.732Z,53.66
2022-12-08T03:58:55.415Z,54.16
2022-12-08T04:01:22.973Z,53.16
2022-12-08T04:03:50.347Z,54.99
2022-12-08T04:06:17.963Z,54.07
2022-12-08T04:08:44.590Z,55.17
2022-12-08T04:11:11.391Z,53.33
2022-12-08T04:13:40.052Z,53.81
2022-12-08T04:16:07.876Z,54.48
2022-12-08T04:18:35.254Z,53.36
2022-12-08T04:21:02.143Z,54.34
2022-12-08T04:23:28.827Z,54.35
2022-12-08T04:25:55.461Z,54.59
2022-12-08T04:28:22.012Z,53.48
2022-12-08T04:30:49.444Z,52.59
2022-12-08T04:33:16.670Z,52.97
2022-12-08T04:35:43.493Z,53.05
2022-12-08T04:38:10.094Z,52.23
2022-12-08T04:40:36.949Z,52.87
2022-12-08T04:43:04.303Z,52.48
2022-12-08T04:45:31.760Z,52.15
2022-12-08T04:48:00.153Z,53.54
2022-12-08T04:50:28.085Z,52.78
2022-12-08T04:52:54.668Z,53.52
2022-12-08T04:55:21.713Z,54.01
2022-12-08T04:57:48.905Z,53.70
2022-12-08T05:00:15.903Z,55.85
2022-12-08T05:02:42.518Z,54.67
2022-12-08T05:05:10.133Z,54.76
2022-12-08T05:07:36.830Z,55.52
2022-12-08T05:10:04.688Z,54.61
2022-12-08T05:12:31.368Z,54.78
2022-12-08T05:14:57.880Z,54.40
2022-12-08T05:17:24.731Z,54.26
2022-12-08T05:19:51.278Z,53.80
2022-12-08T05:22:17.813Z,53.52
2022-12-08T05:24:47.621Z,52.86
2022-12-08T05:27:14.574Z,54.59
2022-12-08T05:29:41.385Z,54.23
2022-12-08T05:32:07.972Z,54.77
2022-12-08T05:34:34.651Z,54.73
2022-12-08T05:37:01.264Z,55.56
2022-12-08T05:39:28.889Z,54.82
2022-12-08T05:41:55.401Z,56.02
2022-12-08T05:44:21.932Z,55.12
2022-12-08T05:46:48.504Z,55.43
2022-12-08T05:49:15.043Z,56.05
2022-12-08T05:51:41.977Z,55.09
2022-12-08T05:54:08.497Z,55.07
2022-12-08T05:56:35.073Z,54.67
2022-12-08T05:59:01.676Z,54.47
2022-12-08T06:01:30.676Z,54.70
2022-12-08T06:03:59.306Z,54.54
2022-12-08T06:06:26.164Z,54.52
2022-12-08T06:08:53.281Z,54.00
2022-12-08T06:11:22.177Z,54.70
2022-12-08T06:13:50.094Z,54.21
2022-12-08T06:16:17.740Z,53.70
2022-12-08T06:18:45.404Z,54.38
2022-12-08T06:21:13.614Z,53.69
2022-12-08T06:23:40.697Z,54.01
2022-12-08T06:26:13.968Z,56.05
2022-12-08T06:28:42.417Z,53.99
2022-12-08T06:31:25.343Z,53.15
2022-12-08T06:33:53.194Z,53.48
2022-12-08T06:36:22.374Z,53.29
2022-12-08T06:38:49.220Z,54.30
2022-12-08T06:41:16.429Z,54.46
2022-12-08T06:43:43.609Z,53.42
2022-12-08T06:46:13.998Z,53.37
2022-12-08T06:48:40.953Z,54.50
2022-12-08T06:51:13.348Z,53.72
2022-12-08T06:53:40.413Z,53.12
2022-12-08T06:56:08.220Z,53.49
2022-12-08T06:58:35.438Z,53.22
2022-12-08T07:01:11.230Z,53.82
2022-12-08T07:03:39.093Z,54.68
2022-12-08T07:06:06.720Z,53.09
2022-12-08T07:08:34.559Z,52.80
2022-12-08T07:11:06.823Z,53.08
2022-12-08T07:13:33.664Z,52.42
2022-12-08T07:16:00.265Z,51.77
2022-12-08T07:18:26.880Z,51.47
2022-12-08T07:20:53.390Z,51.83
2022-12-08T07:23:19.938Z,52.05
2022-12-08T07:25:46.485Z,52.43
2022-12-08T07:28:13.907Z,51.83
2022-12-08T07:30:40.544Z,52.06
2022-12-08T07:33:07.169Z,51.13
2022-12-08T07:35:35.146Z,51.96
2022-12-08T07:38:02.940Z,52.19
2022-12-08T07:40:29.571Z,52.31
2022-12-08T07:42:57.172Z,52.23
2022-12-08T07:45:28.317Z,52.19
2022-12-08T07:47:57.772Z,51.97
2022-12-08T07:50:24.609Z,51.74
2022-12-08T07:52:51.158Z,51.98
2022-12-08T07:55:17.781Z,52.16
2022-12-08T07:57:44.307Z,52.38
2022-12-08T08:00:11.891Z,52.51
2022-12-08T08:02:39.699Z,53.34
2022-12-08T08:05:06.959Z,52.80
2022-12-08T08:07:34.257Z,53.27
2022-12-08T08:10:00.906Z,53.62
2022-12-08T08:12:32.136Z,54.19
2022-12-08T08:15:01.310Z,53.69
2022-12-08T08:17:29.113Z,52.42
2022-12-08T08:19:56.539Z,52.60
2022-12-08T08:22:24.649Z,52.80
2022-12-08T08:24:51.157Z,53.39
2022-12-08T08:27:17.729Z,53.23
2022-12-08T08:29:44.266Z,52.61
2022-12-08T08:32:11.139Z,51.94
2022-12-08T08:34:38.189Z,52.76
2022-12-08T08:37:05.156Z,52.53
2022-12-08T08:39:31.939Z,54.30
2022-12-08T08:41:58.950Z,52.89
2022-12-08T08:44:25.503Z,52.52
2022-12-08T08:46:52.366Z,52.58
2022-12-08T08:49:20.006Z,51.74
2022-12-08T08:51:46.917Z,51.32
2022-12-08T08:54:13.901Z,51.14
2022-12-08T08:56:41.357Z,52.22
2022-12-08T08:59:09.181Z,52.47
2022-12-08T09:01:36.602Z,52.96
2022-12-08T09:04:04.074Z,52.42
2022-12-08T09:06:30.831Z,51.80
2022-12-08T09:08:57.717Z,51.86
2022-12-08T09:11:24.329Z,52.71
2022-12-08T09:13:52.006Z,51.41
2022-12-08T09:16:19.094Z,51.70
2022-12-08T09:18:46.579Z,51.20
2022-12-08T09:21:22.228Z,50.79
2022-12-08T09:23:55.486Z,50.23
2022-12-08T09:26:23.158Z,50.12
2022-12-08T09:28:51.478Z,50.20
2022-12-08T09:31:20.460Z,50.12
2022-12-08T09:33:47.805Z,50.13
2022-12-08T09:36:15.384Z,49.52
2022-12-08T09:38:41.933Z,49.71
2022-12-08T09:41:35.727Z,49.49
2022-12-08T09:44:38.952Z,49.48
2022-12-08T09:47:17.435Z,49.42
2022-12-08T09:50:07.558Z,50.06
2022-12-08T09:52:46.424Z,50.25
2022-12-08T09:55:20.704Z,50.39
2022-12-08T09:57:56.502Z,50.57
2022-12-08T10:00:23.464Z,51.89
2022-12-08T10:02:50.053Z,52.78
2022-12-08T10:05:16.733Z,52.49
2022-12-08T10:08:03.605Z,53.60
2022-12-08T10:10:46.710Z,52.64
2022-12-08T10:13:29.275Z,51.58
2022-12-08T10:16:29.853Z,51.58
2022-12-08T10:19:24.349Z,52.32
2022-12-08T10:21:52.978Z,51.47
2022-12-08T10:24:26.363Z,51.76
2022-12-08T10:26:53.842Z,51.10
2022-12-08T10:29:20.406Z,52.28
2022-12-08T10:31:47.169Z,51.27
2022-12-08T10:34:20.024Z,50.62
2022-12-08T10:36:56.322Z,50.28
2022-12-08T10:39:37.279Z,50.35
2022-12-08T10:42:21.959Z,49.58
2022-12-08T10:44:55.304Z,49.64
2022-12-08T10:47:24.365Z,49.37
2022-12-08T10:50:20.234Z,50.42
2022-12-08T10:52:56.597Z,49.10
2022-12-08T10:55:23.580Z,49.65
2022-12-08T10:57:50.518Z,49.35
2022-12-08T11:00:20.627Z,49.10
2022-12-08T11:03:05.744Z,48.94
2022-12-08T11:05:34.829Z,49.20
2022-12-08T11:08:02.750Z,49.49
2022-12-08T11:10:44.009Z,49.98
2022-12-08T11:13:40.557Z,49.56
2022-12-08T11:16:08.631Z,48.68
2022-12-08T11:18:46.904Z,48.09
2022-12-08T11:21:19.278Z,47.80
2022-12-08T11:23:50.450Z,47.69
2022-12-08T11:26:30.018Z,48.21
2022-12-08T11:28:57.134Z,48.75
2022-12-08T11:31:42.297Z,48.92
2022-12-08T11:34:19.998Z,49.33
2022-12-08T11:36:47.295Z,48.65
2022-12-08T11:39:14.794Z,48.96
2022-12-08T11:41:45.796Z,48.14
2022-12-08T11:44:24.376Z,47.53
2022-12-08T11:46:59.706Z,48.26
2022-12-08T11:49:37.363Z,48.35
2022-12-08T11:52:19.162Z,47.94
2022-12-08T11:54:55.860Z,48.95
2022-12-08T11:57:26.830Z,48.71
2022-12-08T11:59:56.243Z,48.40
2022-12-08T12:02:34.932Z,48.73
2022-12-08T12:05:17.392Z,48.34
2022-12-08T12:08:28.544Z,48.10
2022-12-08T12:11:34.029Z,48.07
2022-12-08T12:14:39.753Z,48.34
2022-12-08T12:17:21.160Z,48.04
2022-12-08T12:19:48.693Z,48.01
2022-12-08T12:22:19.782Z,47.01
2022-12-08T12:24:49.370Z,47.37
2022-12-08T12:27:15.927Z,47.08
2022-12-08T12:29:52.269Z,47.07
2022-12-08T12:32:22.521Z,46.91
2022-12-08T12:35:00.865Z,46.88
2022-12-08T12:37:39.837Z,46.54
2022-12-08T12:40:17.289Z,46.95
2022-12-08T12:42:51.649Z,46.96
2022-12-08T12:45:18.285Z,46.89
2022-12-08T12:48:12.726Z,47.67
2022-12-08T12:50:45.743Z,46.76
2022-12-08T12:53:18.844Z,46.55
2022-12-08T12:55:45.305Z,48.31
2022-12-08T12:58:36.643Z,47.32
2022-12-08T13:01:12.613Z,47.00
2022-12-08T13:03:45.804Z,46.76
2022-12-08T13:06:23.918Z,46.66
2022-12-08T13:08:53.147Z,47.50
2022-12-08T13:11:21.451Z,46.69
2022-12-08T13:14:01.294Z,46.94
2022-12-08T13:16:32.319Z,47.48
2022-12-08T13:19:03.274Z,47.06
2022-12-08T13:21:37.952Z,47.05
2022-12-08T13:24:10.623Z,46.88
2022-12-08T13:26:48.178Z,47.15
2022-12-08T13:29:16.478Z,46.84
2022-12-08T13:31:55.513Z,48.10
2022-12-08T13:34:26.068Z,47.99
2022-12-08T13:37:10.607Z,47.55
2022-12-08T13:39:39.908Z,47.65
2022-12-08T13:42:06.773Z,46.99
2022-12-08T13:45:22.278Z,47.25
2022-12-08T13:48:13.710Z,48.92
2022-12-08T13:54:42.615Z,49.25
2022-12-08T13:59:24.274Z,48.69
2022-12-08T14:01:51.293Z,48.66
2022-12-08T14:05:09.205Z,48.67
2022-12-08T14:07:11.795Z,49.34
2022-12-08T14:09:40.113Z,49.29
2022-12-08T14:12:14.460Z,48.95
2022-12-08T14:17:32.614Z,48.42
2022-12-08T14:20:22.314Z,48.33
2022-12-08T14:22:50.267Z,47.67
2022-12-08T14:25:17.874Z,47.99
2022-12-08T14:27:45.814Z,47.78
2022-12-08T14:30:13.453Z,48.40
2022-12-08T14:32:52.533Z,48.66
2022-12-08T14:35:28.480Z,48.41
2022-12-08T14:38:20.672Z,49.76
2022-12-08T14:40:49.823Z,49.02
2022-12-08T14:43:18.327Z,48.71
2022-12-08T14:45:44.905Z,48.13
2022-12-08T14:48:33.954Z,48.35
2022-12-08T14:51:03.271Z,48.10
2022-12-08T14:53:55.763Z,48.30
2022-12-08T14:56:26.463Z,48.78
2022-12-08T14:59:17.664Z,48.77
2022-12-08T15:01:45.747Z,48.65
2022-12-08T15:04:12.255Z,49.78
2022-12-08T15:06:56.873Z,49.41
2022-12-08T15:09:36.599Z,49.34
2022-12-08T15:12:27.553Z,49.37
2022-12-08T15:14:58.428Z,48.70
2022-12-08T15:17:47.539Z,49.18
2022-12-08T15:20:40.943Z,48.46
2022-12-08T15:23:18.782Z,47.95
2022-12-08T15:25:45.833Z,47.70
2022-12-08T15:28:14.353Z,47.50
2022-12-08T15:30:40.923Z,46.91
2022-12-08T15:33:07.708Z,47.25
2022-12-08T15:35:40.374Z,46.98
2022-12-08T15:38:14.930Z,46.88
2022-12-08T15:40:41.462Z,46.68
2022-12-08T15:43:10.909Z,46.60
2022-12-08T15:45:38.017Z,47.06
2022-12-08T15:48:04.971Z,47.09
2022-12-08T15:50:31.569Z,46.96
2022-12-08T15:52:58.161Z,47.07
2022-12-08T15:55:27.131Z,46.92
2022-12-08T16:00:52.482Z,47.55
2022-12-08T16:09:41.722Z,48.90
2022-12-08T16:13:19.990Z,48.36
2022-12-08T16:15:50.162Z,48.48
2022-12-08T16:18:26.641Z,47.91
2022-12-08T16:23:44.667Z,48.28
2022-12-08T16:27:01.233Z,47.84
2022-12-08T16:29:06.954Z,49.35
2022-12-08T16:31:34.022Z,49.45
2022-12-08T16:34:00.895Z,49.38
2022-12-08T16:36:27.422Z,49.67
2022-12-08T16:38:53.950Z,48.85
2022-12-08T16:41:38.980Z,49.24
2022-12-08T16:44:06.143Z,48.71
2022-12-08T16:46:33.544Z,49.06
2022-12-08T16:49:00.571Z,49.53
2022-12-08T16:51:27.722Z,49.47
2022-12-08T16:53:58.536Z,50.08
2022-12-08T16:56:32.162Z,50.09
2022-12-08T16:58:59.884Z,49.52
2022-12-08T17:01:26.471Z,50.02
2022-12-08T17:04:22.364Z,50.16
2022-12-08T17:06:41.501Z,49.51
2022-12-08T17:09:08.070Z,49.18
2022-12-08T17:11:40.773Z,48.65
2022-12-08T17:14:09.803Z,48.18
2022-12-08T17:16:36.383Z,48.16
2022-12-08T17:19:03.030Z,48.16
2022-12-08T17:21:29.804Z,47.89
2022-12-08T17:23:56.381Z,48.26
2022-12-08T17:26:22.921Z,48.09
2022-12-08T17:29:00.496Z,48.47
2022-12-08T17:31:30.382Z,48.03
2022-12-08T17:34:02.160Z,47.67
2022-12-08T17:36:28.955Z,47.51
2022-12-08T17:38:56.993Z,46.80
2022-12-08T17:41:23.563Z,47.36
2022-12-08T17:43:50.291Z,46.90
2022-12-08T17:46:18.329Z,47.44
2022-12-08T17:48:44.986Z,47.32
2022-12-08T17:51:11.966Z,47.35
2022-12-08T17:53:40.595Z,47.15
2022-12-08T17:56:15.224Z,46.88
2022-12-08T17:58:41.905Z,46.86
2022-12-08T18:01:10.285Z,47.36
2022-12-08T18:03:37.287Z,47.24
2022-12-08T18:06:06.041Z,47.24
2022-12-08T18:08:32.779Z,47.02
2022-12-08T18:10:59.369Z,47.85
2022-12-08T18:13:26.728Z,47.82
2022-12-08T18:15:53.309Z,48.30
2022-12-08T18:18:20.136Z,48.03
2022-12-08T18:20:46.673Z,47.79
2022-12-08T18:23:14.051Z,47.94
2022-12-08T18:25:40.665Z,47.51
2022-12-08T18:28:07.257Z,47.41
2022-12-08T18:30:33.846Z,47.21
2022-12-08T18:33:03.884Z,47.51
2022-12-08T18:35:30.700Z,47.44
2022-12-08T18:37:58.358Z,47.20
2022-12-08T18:40:24.960Z,47.14
2022-12-08T18:42:51.542Z,46.99
2022-12-08T18:45:22.517Z,47.06
2022-12-08T18:47:50.798Z,47.38
2022-12-08T18:50:18.206Z,46.91
2022-12-08T18:52:46.048Z,46.79
2022-12-08T18:55:13.580Z,47.26
2022-12-08T18:57:42.967Z,47.78
2022-12-08T19:00:18.455Z,47.38
2022-12-08T19:02:45.967Z,47.21
2022-12-08T19:05:13.676Z,47.23
2022-12-08T19:07:42.520Z,47.64
2022-12-08T19:10:10.339Z,47.25
2022-12-08T19:12:37.330Z,47.34
2022-12-08T19:15:05.116Z,47.16
2022-12-08T19:17:32.738Z,46.98
2022-12-08T19:19:59.457Z,46.91
2022-12-08T19:22:26.055Z,47.04
2022-12-08T19:24:52.686Z,47.35
2022-12-08T19:27:19.491Z,46.96
2022-12-08T19:29:46.027Z,46.61
2022-12-08T19:32:13.371Z,46.46
2022-12-08T19:34:40.107Z,46.57
2022-12-08T19:37:08.854Z,46.40
2022-12-08T19:39:53.792Z,45.78
2022-12-08T19:42:39.067Z,45.87
2022-12-08T19:45:12.434Z,46.16
2022-12-08T19:47:40.377Z,45.66
2022-12-08T19:50:27.747Z,45.73
2022-12-08T19:52:55.822Z,46.11
2022-12-08T19:55:24.594Z,46.11
2022-12-08T19:57:52.268Z,45.94
2022-12-08T20:00:19.976Z,46.19
2022-12-08T20:02:47.342Z,46.13
2022-12-08T20:05:15.097Z,46.15
2022-12-08T20:07:41.963Z,46.31
2022-12-08T20:10:14.893Z,46.23
2022-12-08T20:12:41.633Z,46.10
2022-12-08T20:15:10.100Z,46.10
2022-12-08T20:17:38.158Z,45.64
2022-12-08T20:20:07.628Z,45.96
2022-12-08T20:22:35.723Z,45.70
2022-12-08T20:25:03.401Z,45.78
2022-12-08T20:27:30.003Z,45.69
2022-12-08T20:29:57.004Z,46.24
2022-12-08T20:32:23.726Z,45.66
2022-12-08T20:34:50.720Z,45.92
2022-12-08T20:37:17.291Z,46.07
2022-12-08T20:39:43.985Z,46.36
2022-12-08T20:42:13.852Z,46.19
2022-12-08T20:44:44.667Z,45.89
2022-12-08T20:47:12.883Z,46.52
2022-12-08T20:49:39.665Z,46.40
2022-12-08T20:52:06.444Z,46.17
2022-12-08T20:54:33.819Z,45.97
2022-12-08T20:57:00.791Z,45.85
2022-12-08T20:59:27.483Z,46.12
2022-12-08T21:01:54.272Z,46.65
2022-12-08T21:04:22.783Z,46.24
2022-12-08T21:06:49.995Z,46.42
2022-12-08T21:09:16.737Z,46.19
2022-12-08T21:11:43.443Z,46.48
2022-12-08T21:14:10.247Z,46.26
2022-12-08T21:16:37.133Z,45.88
2022-12-08T21:19:04.371Z,46.16
2022-12-08T21:21:31.173Z,45.94
2022-12-08T21:23:58.249Z,45.79
2022-12-08T21:26:25.992Z,45.49
2022-12-08T21:28:56.472Z,46.04
2022-12-08T21:31:25.122Z,45.61
2022-12-08T21:33:54.854Z,46.16
2022-12-08T21:36:22.233Z,46.03
2022-12-08T21:38:50.418Z,45.99
2022-12-08T21:41:38.794Z,45.99
2022-12-08T21:44:06.929Z,46.88
2022-12-08T21:46:34.383Z,46.69
2022-12-08T21:49:02.208Z,46.47
2022-12-08T21:51:28.925Z,46.44
2022-12-08T21:53:55.725Z,46.11
2022-12-08T21:56:22.722Z,46.19
2022-12-08T21:58:49.823Z,46.20
2022-12-08T22:01:16.605Z,45.85
2022-12-08T22:03:43.505Z,46.25
2022-12-08T22:06:13.498Z,46.17
2022-12-08T22:08:41.690Z,46.10
2022-12-08T22:11:10.354Z,46.21
2022-12-08T22:13:39.078Z,45.79
2022-12-08T22:16:08.735Z,46.45
2022-12-08T22:18:36.920Z,46.53
2022-12-08T22:21:17.990Z,46.65
2022-12-08T22:23:45.239Z,46.88
2022-12-08T22:26:13.110Z,46.75
2022-12-08T22:28:41.667Z,46.89
2022-12-08T22:31:13.142Z,47.04
2022-12-08T22:33:40.928Z,47.32
2022-12-08T22:36:13.058Z,46.59
2022-12-08T22:38:40.778Z,46.54
2022-12-08T22:41:08.378Z,46.57
2022-12-08T22:43:36.719Z,46.06
2022-12-08T22:46:12.845Z,46.12
2022-12-08T22:48:39.692Z,46.00
2022-12-08T22:51:06.712Z,46.16
2022-12-08T22:53:34.196Z,45.79
2022-12-08T22:56:04.905Z,46.05
2022-12-08T22:58:31.567Z,46.06
2022-12-08T23:00:58.174Z,45.69
2022-12-08T23:03:24.832Z,46.02
2022-12-08T23:05:51.729Z,45.64
2022-12-08T23:08:18.545Z,45.71
2022-12-08T23:10:46.716Z,46.00
2022-12-08T23:13:14.592Z,46.09
2022-12-08T23:15:41.690Z,46.05
2022-12-08T23:18:12.593Z,45.59
2022-12-08T23:20:39.371Z,45.87
2022-12-08T23:23:05.912Z,45.58
2022-12-08T23:25:32.583Z,46.13
2022-12-08T23:27:59.268Z,46.20
2022-12-08T23:30:26.200Z,46.21
2022-12-08T23:32:56.372Z,46.12
2022-12-08T23:35:23.200Z,45.51
2022-12-08T23:37:49.835Z,45.98
2022-12-08T23:40:16.639Z,45.97
2022-12-08T23:42:43.353Z,46.13
2022-12-08T23:45:10.566Z,45.64
2022-12-08T23:47:37.213Z,45.64
2022-12-08T23:50:04.803Z,45.98
2022-12-08T23:52:31.743Z,45.80
2022-12-08T23:54:58.588Z,46.35
2022-12-08T23:57:25.565Z,46.33
2022-12-08T23:59:52.067Z,45.73
